createdAt,value
2019-03-25T05:04:10.175Z,100813.5
2019-03-25T05:07:38.039Z,100818.29
2019-03-25T05:11:05.879Z,100814.14
2019-03-25T05:14:33.766Z,100826.14
2019-03-25T05:18:01.619Z,100828.83
2019-03-25T05:21:29.831Z,100836.42
2019-03-25T05:24:57.658Z,100831.38
2019-03-25T05:28:25.609Z,100822.1
2019-03-25T05:31:54.478Z,100825.07
2019-03-25T05:35:22.301Z,100821.46
2019-03-25T05:38:50.152Z,100825.07
2019-03-25T05:42:19.013Z,100832.5
2019-03-25T05:45:46.847Z,100828.28
2019-03-25T05:49:14.708Z,100832.89
2019-03-25T05:52:43.550Z,100828.17
2019-03-25T05:56:11.381Z,100834.01
2019-03-25T05:59:41.213Z,100833.69
2019-03-25T06:03:09.077Z,100834.54
2019-03-25T06:06:37.906Z,100838.78
2019-03-25T06:10:05.752Z,100839.73
2019-03-25T06:13:33.602Z,100841.61
2019-03-25T06:17:01.424Z,100841.56
2019-03-25T06:20:29.270Z,100844.21
2019-03-25T06:23:57.125Z,100848.39
2019-03-25T06:27:25.004Z,100851.92
2019-03-25T06:30:53.828Z,100853.29
2019-03-25T06:34:21.676Z,100855.49
2019-03-25T06:37:49.515Z,100866.5
2019-03-25T06:41:17.379Z,100868.4
2019-03-25T06:44:45.224Z,100861.82
2019-03-25T06:48:14.044Z,100866.09
2019-03-25T06:51:41.904Z,100859.34
2019-03-25T06:55:10.749Z,100858.32
2019-03-25T06:58:38.591Z,100858.15
2019-03-25T07:02:06.435Z,100860.94
2019-03-25T07:05:34.289Z,100867.67
2019-03-25T07:09:02.173Z,100888.87
2019-03-25T07:12:30.015Z,100875.56
2019-03-25T07:15:57.871Z,100885.32
2019-03-25T07:19:25.711Z,100883.25
2019-03-25T07:22:53.541Z,100889.29
2019-03-25T07:26:21.387Z,100893.28
2019-03-25T07:29:49.254Z,100899.64
2019-03-25T07:33:17.088Z,100907.84
2019-03-25T07:36:44.936Z,100911.78
2019-03-25T07:40:12.793Z,100900.12
2019-03-25T07:43:40.631Z,100912.73
2019-03-25T07:47:08.487Z,100914.17
2019-03-25T07:50:36.324Z,100910.82
2019-03-25T07:54:04.168Z,100911.43
2019-03-25T07:57:32.057Z,100915.27
2019-03-25T08:01:00.891Z,100922.65
2019-03-25T08:04:28.703Z,100922.5
2019-03-25T08:07:56.550Z,100937.07
2019-03-25T08:11:24.423Z,100927.03
2019-03-25T08:14:53.249Z,100931.67
2019-03-25T08:18:21.088Z,100931.51
2019-03-25T08:21:48.944Z,100941.62
2019-03-25T08:25:16.811Z,100947.29
2019-03-25T08:28:44.643Z,100946.03
2019-03-25T08:32:12.506Z,100946.42
2019-03-25T08:35:40.365Z,100966.46
2019-03-25T08:39:09.178Z,100974.75
2019-03-25T08:42:37.030Z,100971.56
2019-03-25T08:46:04.878Z,100979.17
2019-03-25T08:49:33.698Z,100992.94
2019-03-25T08:53:01.544Z,100986.89
2019-03-25T08:56:29.432Z,100994.72
2019-03-25T08:59:58.251Z,100986.93
2019-03-25T09:03:26.113Z,100993.2
2019-03-25T09:06:53.963Z,100996.21
2019-03-25T09:10:21.801Z,101016.65
2019-03-25T09:13:49.656Z,101016.85
2019-03-25T09:17:17.514Z,101031.73
2019-03-25T09:20:45.365Z,101037.21
2019-03-25T09:24:14.188Z,101034.33
2019-03-25T09:27:42.035Z,101055.78
2019-03-25T09:31:09.887Z,101032.21
2019-03-25T09:34:37.732Z,101043.17
2019-03-25T09:38:05.580Z,101056.11
2019-03-25T09:41:33.427Z,101061.32
2019-03-25T09:45:01.258Z,101063.92
2019-03-25T09:48:29.101Z,101069.65
2019-03-25T09:51:56.945Z,101077.42
2019-03-25T09:55:24.797Z,101070.57
2019-03-25T09:58:52.692Z,101077.92
2019-03-25T10:02:20.497Z,101080.57
2019-03-25T10:05:48.341Z,101078.7
2019-03-25T10:09:16.189Z,101087.49
2019-03-25T10:12:44.042Z,101086.1
2019-03-25T10:16:11.896Z,101085.31
2019-03-25T10:19:39.737Z,101100.32
2019-03-25T10:23:07.586Z,101101.38
2019-03-25T10:26:35.431Z,101101.39
2019-03-25T10:30:03.265Z,101106.76
2019-03-25T10:33:31.115Z,101121.27
2019-03-25T10:36:59.066Z,101115.86
2019-03-25T10:40:26.899Z,101120.38
2019-03-25T10:43:54.748Z,101130.57
2019-03-25T10:47:22.595Z,101151.93
2019-03-25T10:50:50.433Z,101146.1
2019-03-25T10:54:18.330Z,101139.95
2019-03-25T10:57:47.124Z,101151.57
2019-03-25T11:01:14.959Z,101156.18
2019-03-25T11:04:42.810Z,101150.4
2019-03-25T11:08:10.660Z,101156.93
2019-03-25T11:11:38.517Z,101164.09
2019-03-25T11:15:06.377Z,101168.39
2019-03-25T11:18:34.254Z,101184.9
2019-03-25T11:22:02.103Z,101185.46
2019-03-25T11:25:29.960Z,101189.93
2019-03-25T11:29:00.815Z,101207.37
2019-03-25T11:32:30.620Z,101203.6
2019-03-25T11:35:58.487Z,101209.6
2019-03-25T11:39:27.339Z,101213.1
2019-03-25T11:42:55.210Z,101217.8
2019-03-25T11:46:23.076Z,101217.91
2019-03-25T11:49:50.959Z,101222.58
2019-03-25T11:53:18.830Z,101228.67
2019-03-25T11:56:46.700Z,101243.82
2019-03-25T12:00:14.570Z,101239.03
2019-03-25T12:03:42.437Z,101243.6
2019-03-25T12:07:10.291Z,101254.86
2019-03-25T12:10:38.156Z,101250.46
2019-03-25T12:14:06.031Z,101251.12
2019-03-25T12:17:33.873Z,101259.92
2019-03-25T12:21:01.730Z,101279.07
2019-03-25T12:24:29.584Z,101277.71
2019-03-25T12:27:57.542Z,101270.17
2019-03-25T12:31:25.298Z,101273.53
2019-03-25T12:34:54.173Z,101280.48
2019-03-25T12:38:22.030Z,101294.9
2019-03-25T12:41:49.880Z,101295.31
2019-03-25T12:45:17.747Z,101302.92
2019-03-25T12:48:45.596Z,101301.89
2019-03-25T12:52:13.477Z,101317.5
2019-03-25T12:55:41.418Z,101327.81
2019-03-25T12:59:09.366Z,101327.21
2019-03-25T13:02:37.240Z,101320
2019-03-25T13:06:05.140Z,101317.95
2019-03-25T13:09:33.061Z,101313.93
2019-03-25T13:13:00.942Z,101310.67
2019-03-25T13:16:28.827Z,101324.98
2019-03-25T13:19:56.729Z,101330.25
2019-03-25T13:23:24.628Z,101318.51
2019-03-25T13:26:52.527Z,101328.42
2019-03-25T13:30:20.431Z,101329.14
2019-03-25T13:33:49.385Z,101336.29
2019-03-25T13:37:17.220Z,101348.36
2019-03-25T13:40:45.104Z,101351.17
2019-03-25T13:44:12.989Z,101362.64
2019-03-25T13:47:40.881Z,101381.03
2019-03-25T13:51:08.780Z,101397.98
2019-03-25T13:54:36.663Z,101394.7
2019-03-25T13:58:05.555Z,101400.32
2019-03-25T14:01:33.466Z,101399.01
2019-03-25T14:05:01.343Z,101407.4
2019-03-25T14:08:29.253Z,101415.35
2019-03-25T14:11:57.138Z,101425.29
2019-03-25T14:15:25.075Z,101438.85
2019-03-25T14:18:52.920Z,101452.62
2019-03-25T14:22:20.809Z,101460.37
2019-03-25T14:25:50.255Z,101467.42
2019-03-25T14:29:18.115Z,101467.35
2019-03-25T14:32:46.030Z,101480.9
2019-03-25T14:36:13.907Z,101484.15
2019-03-25T14:39:42.645Z,101481.87
2019-03-25T14:43:10.535Z,101496.43
2019-03-25T14:46:39.089Z,101495.26
2019-03-25T14:50:06.964Z,101497.35
2019-03-25T14:53:44.682Z,101501.18
2019-03-25T14:57:08.778Z,101528.46
2019-03-25T15:00:36.666Z,101538.28
2019-03-25T15:04:04.567Z,101529.51
2019-03-25T15:07:32.478Z,101536.46
2019-03-25T15:11:00.340Z,101543.64
2019-03-25T15:14:28.192Z,101559.48
2019-03-25T15:17:57.072Z,101569.26
2019-03-25T15:21:24.962Z,101575.71
2019-03-25T15:24:52.829Z,101586.45
2019-03-25T15:28:20.717Z,101588.25
2019-03-25T15:31:48.590Z,101595.85
2019-03-25T15:35:16.453Z,101605.32
2019-03-25T15:38:44.300Z,101615.46
2019-03-25T15:42:12.763Z,101622.98
2019-03-25T15:45:40.607Z,101634.6
2019-03-25T15:49:08.484Z,101638.48
2019-03-25T15:52:36.333Z,101639
2019-03-25T15:56:04.184Z,101652.39
2019-03-25T15:59:32.049Z,101648.65
2019-03-25T16:02:59.908Z,101655.7
2019-03-25T16:06:27.778Z,101672.2
2019-03-25T16:09:55.815Z,101683.25
2019-03-25T16:13:23.772Z,101693.8
2019-03-25T16:16:51.626Z,101698.89
2019-03-25T16:20:19.473Z,101703.73
2019-03-25T16:23:47.325Z,101719.71
2019-03-25T16:27:15.192Z,101727.23
2019-03-25T16:30:43.037Z,101728.92
2019-03-25T16:34:11.878Z,101730.96
2019-03-25T16:37:39.746Z,101727.74
2019-03-25T16:41:07.582Z,101736.63
2019-03-25T16:44:35.435Z,101752.95
2019-03-25T16:48:03.275Z,101755.28
2019-03-25T16:51:31.112Z,101770.9
2019-03-25T16:54:58.972Z,101786.26
2019-03-25T16:58:26.844Z,101803.42
2019-03-25T17:01:54.715Z,101811.9
2019-03-25T17:05:22.570Z,101814.93
2019-03-25T17:08:50.539Z,101828.4
2019-03-25T17:12:25.416Z,101827
2019-03-25T17:15:53.276Z,101829.04
2019-03-25T17:19:21.798Z,101831.58
2019-03-25T17:22:49.641Z,101836.69
2019-03-25T17:26:17.489Z,101843.31
2019-03-25T17:29:45.350Z,101852.26
2019-03-25T17:33:13.223Z,101855.46
2019-03-25T17:36:41.056Z,101854.95
2019-03-25T17:40:08.937Z,101854.17
2019-03-25T17:43:36.741Z,101858.71
2019-03-25T17:47:05.570Z,101872.07
2019-03-25T17:50:33.457Z,101875.03
2019-03-25T17:54:01.290Z,101878.75
2019-03-25T17:57:29.127Z,101881.33
2019-03-25T18:00:56.985Z,101892.89
2019-03-25T18:04:24.886Z,101901
2019-03-25T18:07:52.726Z,101909.48
2019-03-25T18:11:22.813Z,101914.31
2019-03-25T18:14:49.414Z,101911.07
2019-03-25T18:18:17.453Z,101910.68
